Time;durP1;ratioP1;P1;durP2;ratioP2;P2;SDS_P1;SDS_P2;PMS_P1;PMS_P2;Temp;Humidity;BMP_temperature;BMP_pressure;BME280_temperature;BME280_humidity;BME280_pressure;Samples;Min_cycle;Max_cycle;Signal;HPM_P1;HPM_P2
2021/06/20 00:01:24;;;;;;;7.30;5.83;;;26.30;73.80;;;;;;5118262;28;20510;-84
2021/06/20 00:03:51;;;;;;;11.60;7.00;;;26.20;73.40;;;;;;5118377;28;20451;-84
2021/06/20 00:06:26;;;;;;;9.60;6.70;;;26.20;73.70;;;;;;5117750;28;20995;-84
2021/06/20 00:08:53;;;;;;;11.60;6.97;;;26.20;73.90;;;;;;5117931;28;20408;-82
2021/06/20 00:11:20;;;;;;;8.63;6.50;;;26.20;73.90;;;;;;5117887;28;20443;-84
2021/06/20 00:13:46;;;;;;;9.60;6.60;;;26.20;74.30;;;;;;5117538;28;20450;-84
2021/06/20 00:16:15;;;;;;;13.10;7.00;;;26.20;74.40;;;;;;5122791;28;20461;-84
2021/06/20 00:18:41;;;;;;;8.60;6.23;;;26.10;74.50;;;;;;5124966;28;20438;-84
2021/06/20 00:21:08;;;;;;;12.03;6.47;;;26.10;74.50;;;;;;5126009;27;20431;-83
2021/06/20 00:23:35;;;;;;;17.33;7.10;;;26.10;74.70;;;;;;5137183;28;20427;-83
2021/06/20 00:26:02;;;;;;;7.50;5.87;;;26.00;74.80;;;;;;5136650;27;20471;-83
2021/06/20 00:28:29;;;;;;;10.67;6.10;;;26.00;74.50;;;;;;5121465;27;20423;-84
2021/06/20 00:30:56;;;;;;;9.70;5.97;;;26.00;75.00;;;;;;5117255;28;20474;-84
2021/06/20 00:33:24;;;;;;;9.53;6.23;;;26.00;74.90;;;;;;5129051;27;20443;-84
2021/06/20 00:35:51;;;;;;;6.83;5.40;;;25.90;75.20;;;;;;5132500;27;20457;-84
2021/06/20 00:38:18;;;;;;;8.93;4.70;;;26.00;75.30;;;;;;5139100;27;20433;-82
2021/06/20 00:40:45;;;;;;;7.33;4.47;;;25.90;75.20;;;;;;5136774;27;20481;-82
2021/06/20 00:43:11;;;;;;;5.73;4.23;;;25.90;75.30;;;;;;5133041;28;20445;-83
2021/06/20 00:45:39;;;;;;;6.67;4.70;;;25.90;75.30;;;;;;5121981;28;20818;-83
2021/06/20 00:48:07;;;;;;;9.70;4.97;;;25.90;75.60;;;;;;5121194;28;20443;-83
2021/06/20 00:50:35;;;;;;;8.40;5.10;;;25.80;75.60;;;;;;5121214;28;20469;-83
2021/06/20 00:53:03;;;;;;;7.80;4.90;;;25.80;75.70;;;;;;5120573;28;20431;-83
2021/06/20 00:55:32;;;;;;;7.60;5.40;;;25.80;75.50;;;;;;5120472;28;20515;-83
2021/06/20 00:58:00;;;;;;;10.87;6.07;;;25.80;76.80;;;;;;5119966;28;20458;-83
2021/06/20 01:00:28;;;;;;;9.40;5.93;;;25.80;76.00;;;;;;5120637;28;20467;-83
2021/06/20 01:02:55;;;;;;;8.10;4.73;;;25.70;76.80;;;;;;5120020;28;20442;-83
2021/06/20 01:05:22;;;;;;;8.93;3.73;;;25.60;76.00;;;;;;5120810;28;20483;-83
2021/06/20 01:07:52;;;;;;;25.73;4.53;;;25.60;76.20;;;;;;5121430;28;20446;-83
2021/06/20 01:10:20;;;;;;;12.17;4.13;;;25.40;76.40;;;;;;5121417;28;20509;-83
2021/06/20 01:12:47;;;;;;;12.00;4.60;;;25.10;76.90;;;;;;5120934;28;20453;-83
2021/06/20 01:15:15;;;;;;;10.93;4.23;;;25.00;77.90;;;;;;5121438;28;20451;-82
2021/06/20 01:17:42;;;;;;;10.23;3.73;;;24.80;78.20;;;;;;5121005;28;20929;-82
2021/06/20 01:20:12;;;;;;;6.23;2.77;;;24.70;79.00;;;;;;5121907;28;20475;-84
2021/06/20 01:22:42;;;;;;;6.00;2.73;;;24.40;78.40;;;;;;5123027;28;20769;-84
2021/06/20 01:25:11;;;;;;;5.50;2.63;;;24.10;80.00;;;;;;5122377;28;20526;-84
2021/06/20 01:27:40;;;;;;;5.10;2.63;;;24.00;80.10;;;;;;5122023;28;20439;-83
2021/06/20 01:30:10;;;;;;;11.40;2.83;;;23.90;80.90;;;;;;5122537;28;20497;-83
2021/06/20 01:32:37;;;;;;;6.70;2.40;;;23.70;81.20;;;;;;5121443;28;20454;-83
2021/06/20 01:35:04;;;;;;;7.07;2.37;;;23.60;82.00;;;;;;5122566;28;20442;-83
2021/06/20 01:37:31;;;;;;;4.43;2.50;;;23.60;82.70;;;;;;5121734;28;20458;-83
2021/06/20 01:39:59;;;;;;;7.80;2.70;;;23.70;83.60;;;;;;5122208;28;20467;-83
2021/06/20 01:42:26;;;;;;;7.43;2.77;;;23.80;83.50;;;;;;5122061;28;20431;-83
2021/06/20 01:44:54;;;;;;;4.90;2.23;;;23.70;83.40;;;;;;5121891;28;20474;-83
2021/06/20 01:47:23;;;;;;;7.63;2.50;;;23.70;83.50;;;;;;5121886;28;20451;-83
2021/06/20 01:49:51;;;;;;;3.67;2.00;;;23.70;83.80;;;;;;5121204;28;20463;-83
2021/06/20 01:52:19;;;;;;;3.97;2.40;;;23.70;83.60;;;;;;5120794;28;20422;-83
2021/06/20 01:54:52;;;;;;;5.20;2.83;;;23.70;83.60;;;;;;5120710;28;20960;-83
2021/06/20 01:57:22;;;;;;;3.57;2.00;;;23.60;83.30;;;;;;5121479;28;20423;-83
2021/06/20 01:59:50;;;;;;;4.40;3.33;;;23.60;83.70;;;;;;5121212;28;20557;-83
2021/06/20 02:02:18;;;;;;;4.10;2.80;;;23.50;84.90;;;;;;5121698;28;20451;-83
2021/06/20 02:04:45;;;;;;;6.20;3.27;;;23.50;84.60;;;;;;5121783;28;20546;-84
2021/06/20 02:07:12;;;;;;;9.80;3.27;;;23.40;85.30;;;;;;5122054;28;20447;-83
2021/06/20 02:09:40;;;;;;;11.63;3.43;;;23.30;86.00;;;;;;5122038;28;20471;-83
2021/06/20 02:12:10;;;;;;;5.83;2.90;;;23.10;87.40;;;;;;5122777;28;20505;-83
2021/06/20 02:14:40;;;;;;;4.70;3.40;;;22.90;88.70;;;;;;5119480;28;20535;-84
2021/06/20 02:17:19;;;;;;;11.03;3.40;;;22.80;89.00;;;;;;5118606;28;20483;-84
2021/06/20 02:19:46;;;;;;;4.50;3.70;;;22.80;89.60;;;;;;5118270;28;20459;-84
2021/06/20 02:22:13;;;;;;;8.27;4.17;;;22.80;90.00;;;;;;5118889;28;20466;-84
2021/06/20 02:24:40;;;;;;;7.63;3.77;;;22.80;90.10;;;;;;5118323;28;20435;-84
2021/06/20 02:27:09;;;;;;;8.47;4.63;;;22.80;90.30;;;;;;5119435;28;20481;-84
2021/06/20 02:29:38;;;;;;;8.73;3.03;;;22.80;90.40;;;;;;5121036;28;20478;-83
2021/06/20 02:32:06;;;;;;;9.20;4.90;;;22.80;90.30;;;;;;5120469;28;20938;-84
2021/06/20 02:34:33;;;;;;;6.80;4.30;;;22.70;90.70;;;;;;5117475;28;20453;-84
2021/06/20 02:37:00;;;;;;;7.50;3.90;;;22.70;90.70;;;;;;5116920;28;20445;-84
2021/06/20 02:39:26;;;;;;;7.70;3.93;;;22.70;90.80;;;;;;5116641;28;20474;-84
2021/06/20 02:41:53;;;;;;;9.10;3.60;;;22.80;90.70;;;;;;5115742;28;20443;-84
2021/06/20 02:44:20;;;;;;;5.33;3.90;;;22.90;90.60;;;;;;5114484;28;20431;-84
2021/06/20 02:46:48;;;;;;;12.20;3.90;;;23.00;90.40;;;;;;5116055;28;20478;-84
2021/06/20 02:49:15;;;;;;;11.93;4.20;;;23.00;89.80;;;;;;5118697;28;20452;-83
2021/06/20 02:51:44;;;;;;;7.13;3.70;;;23.10;90.00;;;;;;5115068;28;20523;-84
2021/06/20 02:54:11;;;;;;;5.40;3.97;;;23.00;90.00;;;;;;5115571;28;20444;-84
2021/06/20 02:56:39;;;;;;;6.27;3.93;;;23.10;90.10;;;;;;5116763;28;20443;-84
2021/06/20 02:59:05;;;;;;;4.87;3.40;;;23.10;90.20;;;;;;5119404;28;20968;-83
2021/06/20 03:01:33;;;;;;;4.73;3.13;;;23.00;90.10;;;;;;5119730;28;20443;-84
2021/06/20 03:04:01;;;;;;;3.30;2.50;;;23.10;89.40;;;;;;5119230;28;20431;-84
2021/06/20 03:06:28;;;;;;;9.17;2.60;;;23.00;88.00;;;;;;5119594;28;20485;-84
2021/06/20 03:08:55;;;;;;;6.47;2.40;;;22.80;86.60;;;;;;5119415;28;20443;-83
2021/06/20 03:11:22;;;;;;;5.67;3.50;;;22.70;87.80;;;;;;5118973;28;20437;-84
2021/06/20 03:13:49;;;;;;;4.83;2.30;;;22.70;88.40;;;;;;5118272;28;20450;-84
2021/06/20 03:16:17;;;;;;;7.10;2.13;;;22.70;87.40;;;;;;5119172;28;20931;-84
2021/06/20 03:18:44;;;;;;;4.57;2.00;;;22.60;88.00;;;;;;5120010;28;20506;-84
2021/06/20 03:21:13;;;;;;;4.93;2.20;;;22.50;86.70;;;;;;5119937;28;20478;-84
2021/06/20 03:23:39;;;;;;;3.60;2.43;;;22.40;87.40;;;;;;5120375;28;20504;-84
2021/06/20 03:26:06;;;;;;;6.30;2.80;;;22.40;87.00;;;;;;5119969;28;20471;-84
2021/06/20 03:28:33;;;;;;;3.80;2.30;;;22.30;87.30;;;;;;5119279;28;20454;-84
2021/06/20 03:31:00;;;;;;;8.80;2.63;;;22.30;87.80;;;;;;5121389;28;20465;-84
2021/06/20 03:33:27;;;;;;;2.23;2.00;;;22.30;88.40;;;;;;5122092;28;20803;-84
2021/06/20 03:35:54;;;;;;;5.30;2.60;;;22.30;87.90;;;;;;5120430;28;20449;-84
2021/06/20 03:38:22;;;;;;;4.97;2.00;;;22.30;88.40;;;;;;5119286;28;20457;-84
2021/06/20 03:40:49;;;;;;;5.13;1.97;;;22.30;87.10;;;;;;5118611;28;20482;-85
2021/06/20 03:43:15;;;;;;;4.73;2.60;;;22.40;87.80;;;;;;5121788;28;20446;-85
2021/06/20 03:45:42;;;;;;;7.97;2.40;;;22.40;87.50;;;;;;5121384;28;20470;-85
2021/06/20 03:48:09;;;;;;;5.30;2.50;;;22.40;87.00;;;;;;5119393;28;20454;-85
2021/06/20 03:50:36;;;;;;;3.70;1.80;;;22.50;88.30;;;;;;5120626;28;20951;-84
2021/06/20 03:53:03;;;;;;;4.40;2.33;;;22.50;86.40;;;;;;5118501;28;20435;-84
2021/06/20 03:55:31;;;;;;;8.27;2.67;;;22.50;86.30;;;;;;5118084;28;20450;-84
2021/06/20 03:57:58;;;;;;;2.57;1.83;;;22.40;85.70;;;;;;5120844;28;20442;-84
2021/06/20 04:00:25;;;;;;;3.40;2.23;;;22.40;86.50;;;;;;5121475;28;20463;-84
2021/06/20 04:02:51;;;;;;;3.40;2.43;;;22.50;86.40;;;;;;5119520;28;20435;-84
2021/06/20 04:05:18;;;;;;;3.47;2.03;;;22.50;86.10;;;;;;5118604;28;20447;-84
2021/06/20 04:07:45;;;;;;;9.80;2.67;;;22.50;85.30;;;;;;5117483;28;20462;-84
2021/06/20 04:10:13;;;;;;;3.40;1.90;;;22.50;85.00;;;;;;5118050;28;20497;-84
2021/06/20 04:12:41;;;;;;;4.47;2.23;;;22.50;85.00;;;;;;5117121;28;20435;-85
2021/06/20 04:15:08;;;;;;;6.60;2.37;;;22.60;85.80;;;;;;5117513;28;20466;-84
2021/06/20 04:17:35;;;;;;;7.57;2.30;;;22.60;84.50;;;;;;5122455;28;20811;-84
2021/06/20 04:20:03;;;;;;;5.13;2.10;;;22.70;85.40;;;;;;5122797;28;20467;-84
2021/06/20 04:22:29;;;;;;;6.10;2.17;;;22.70;85.30;;;;;;5122516;28;20936;-84
2021/06/20 04:24:56;;;;;;;2.50;1.57;;;22.80;85.30;;;;;;5120593;28;20447;-84
2021/06/20 04:27:23;;;;;;;4.17;2.20;;;22.80;84.50;;;;;;5119715;28;20463;-86
2021/06/20 04:29:51;;;;;;;5.30;2.30;;;22.70;84.30;;;;;;5119101;28;20462;-86
2021/06/20 04:32:18;;;;;;;5.07;2.40;;;22.80;84.10;;;;;;5121074;28;20442;-84
2021/06/20 04:34:45;;;;;;;2.40;2.10;;;22.80;84.20;;;;;;5121397;28;20560;-83
2021/06/20 04:37:12;;;;;;;5.40;2.00;;;22.70;82.60;;;;;;5121623;28;20443;-83
2021/06/20 04:39:38;;;;;;;3.10;2.53;;;22.70;83.20;;;;;;5121305;28;20461;-83
2021/06/20 04:42:08;;;;;;;4.30;2.00;;;22.70;82.90;;;;;;5121171;28;20451;-83
2021/06/20 04:44:44;;;;;;;5.50;2.60;;;22.70;82.50;;;;;;5121492;28;20631;-84
2021/06/20 04:47:15;;;;;;;3.70;2.50;;;22.70;82.70;;;;;;5122535;28;20975;-85
2021/06/20 04:49:43;;;;;;;6.90;2.50;;;22.70;82.70;;;;;;5119931;28;20939;-84
2021/06/20 04:52:11;;;;;;;4.80;2.10;;;22.70;81.30;;;;;;5119182;28;20446;-85
2021/06/20 04:54:49;;;;;;;5.60;2.17;;;22.70;81.60;;;;;;5119013;28;20431;-85
2021/06/20 04:57:17;;;;;;;3.67;1.97;;;22.60;81.90;;;;;;5120116;28;20522;-84
2021/06/20 04:59:45;;;;;;;2.33;1.90;;;22.60;81.00;;;;;;5121886;28;20541;-84
2021/06/20 05:02:14;;;;;;;3.33;1.87;;;22.70;81.30;;;;;;5121750;28;20466;-84
2021/06/20 05:04:41;;;;;;;2.30;1.80;;;22.60;81.90;;;;;;5120869;28;20431;-84
2021/06/20 05:07:09;;;;;;;3.80;2.50;;;22.60;81.90;;;;;;5118756;28;20482;-84
2021/06/20 05:09:36;;;;;;;9.30;2.73;;;22.70;80.70;;;;;;5120783;28;20467;-82
2021/06/20 05:12:03;;;;;;;4.00;2.10;;;22.70;81.10;;;;;;5120655;28;20434;-82
2021/06/20 05:14:30;;;;;;;4.23;2.40;;;22.70;81.50;;;;;;5120633;28;20828;-82
2021/06/20 05:16:57;;;;;;;4.90;2.60;;;22.70;81.80;;;;;;5121348;28;20435;-81
2021/06/20 05:19:25;;;;;;;4.63;2.37;;;22.70;81.10;;;;;;5121615;28;20490;-81
2021/06/20 05:21:52;;;;;;;2.53;2.03;;;22.60;81.50;;;;;;5120793;28;20442;-81
2021/06/20 05:24:19;;;;;;;6.50;2.23;;;22.60;82.20;;;;;;5121579;28;20526;-81
2021/06/20 05:26:46;;;;;;;3.03;2.40;;;22.70;81.80;;;;;;5120915;28;20478;-81
2021/06/20 05:29:13;;;;;;;4.50;2.80;;;22.80;81.90;;;;;;5121888;28;20431;-82
2021/06/20 05:31:40;;;;;;;8.17;3.07;;;22.80;82.00;;;;;;5121964;28;20924;-82
2021/06/20 05:34:07;;;;;;;5.20;2.50;;;22.90;80.90;;;;;;5121613;28;20447;-82
2021/06/20 05:36:35;;;;;;;3.90;2.77;;;22.90;80.10;;;;;;5122244;28;20439;-81
2021/06/20 05:39:02;;;;;;;5.90;2.27;;;22.90;79.70;;;;;;5121691;28;20502;-82
2021/06/20 05:41:29;;;;;;;5.57;2.50;;;22.80;80.20;;;;;;5122042;28;20449;-82
2021/06/20 05:43:56;;;;;;;2.80;2.00;;;22.70;79.50;;;;;;5121542;28;20451;-82
2021/06/20 05:46:23;;;;;;;6.53;2.60;;;22.70;80.60;;;;;;5121133;28;20475;-81
2021/06/20 05:48:50;;;;;;;5.63;2.57;;;22.80;81.60;;;;;;5120622;28;20475;-81
2021/06/20 05:51:17;;;;;;;3.50;2.60;;;22.80;81.60;;;;;;5120952;28;20482;-81
2021/06/20 05:53:46;;;;;;;5.40;2.20;;;22.80;80.40;;;;;;5120086;28;20515;-81
2021/06/20 05:56:13;;;;;;;5.77;2.00;;;22.80;80.40;;;;;;5119999;28;20951;-81
2021/06/20 05:58:39;;;;;;;4.10;2.70;;;22.80;79.70;;;;;;5120214;28;20795;-81
2021/06/20 06:01:07;;;;;;;2.23;1.97;;;22.80;79.80;;;;;;5118111;28;20956;-81
2021/06/20 06:03:35;;;;;;;3.53;1.93;;;22.90;79.90;;;;;;5120360;28;20794;-80
2021/06/20 06:06:02;;;;;;;2.30;1.83;;;22.90;79.50;;;;;;5119971;28;20447;-80
2021/06/20 06:08:29;;;;;;;3.35;1.80;;;22.80;79.20;;;;;;5120710;28;20428;-82
2021/06/20 06:10:57;;;;;;;6.17;2.83;;;22.80;79.70;;;;;;5124784;28;20227;-82
2021/06/20 06:13:24;;;;;;;3.30;2.10;;;23.10;78.60;;;;;;5123590;28;20936;-82
2021/06/20 06:15:51;;;;;;;3.80;2.00;;;23.30;77.00;;;;;;5126980;28;20486;-82
2021/06/20 06:18:17;;;;;;;2.77;2.40;;;23.50;76.20;;;;;;5123845;28;20427;-83
2021/06/20 06:20:44;;;;;;;2.23;2.03;;;23.70;75.30;;;;;;5123826;28;20467;-83
2021/06/20 06:23:12;;;;;;;3.00;1.80;;;23.70;74.00;;;;;;5124108;28;20442;-83
2021/06/20 06:25:39;;;;;;;3.53;1.80;;;23.70;74.30;;;;;;5123897;28;20477;-83
2021/06/20 06:28:07;;;;;;;3.23;2.10;;;23.80;72.80;;;;;;5121493;28;20474;-84
2021/06/20 06:30:34;;;;;;;7.13;2.23;;;23.90;72.20;;;;;;5121646;28;20467;-84
2021/06/20 06:33:04;;;;;;;4.67;2.13;;;23.90;72.10;;;;;;5121584;28;20443;-84
2021/06/20 06:35:31;;;;;;;2.90;1.53;;;23.90;72.20;;;;;;5122435;28;20446;-84
2021/06/20 06:37:57;;;;;;;1.83;1.60;;;24.00;71.40;;;;;;5121073;28;20435;-84
2021/06/20 06:40:24;;;;;;;5.03;1.83;;;24.10;70.70;;;;;;5121227;28;20467;-84
2021/06/20 06:42:51;;;;;;;4.57;1.70;;;24.20;70.70;;;;;;5121325;28;20439;-84
2021/06/20 06:45:19;;;;;;;3.53;2.00;;;24.20;69.30;;;;;;5122241;28;20455;-84
2021/06/20 06:47:46;;;;;;;3.63;1.60;;;24.30;69.70;;;;;;5122609;28;20569;-84
2021/06/20 06:50:13;;;;;;;2.10;1.73;;;24.40;68.00;;;;;;5122010;28;20451;-84
2021/06/20 06:52:40;;;;;;;4.93;2.20;;;24.50;68.20;;;;;;5120534;28;20451;-83
2021/06/20 06:55:09;;;;;;;3.70;1.87;;;24.50;67.30;;;;;;5121163;28;20447;-83
2021/06/20 06:57:37;;;;;;;1.50;1.40;;;24.40;67.70;;;;;;5120701;28;20439;-83
2021/06/20 07:00:06;;;;;;;1.93;1.40;;;24.30;67.70;;;;;;5120633;28;20477;-84
2021/06/20 07:02:35;;;;;;;3.80;1.80;;;24.40;67.90;;;;;;5123133;28;20447;-84
2021/06/20 07:05:02;;;;;;;2.30;1.57;;;24.50;67.60;;;;;;5123076;28;20435;-84
2021/06/20 07:07:28;;;;;;;1.93;1.40;;;24.60;67.20;;;;;;5126483;28;20489;-85
2021/06/20 07:09:58;;;;;;;2.07;1.70;;;24.80;66.70;;;;;;5125013;28;20462;-84
2021/06/20 07:12:26;;;;;;;1.90;1.20;;;24.90;65.30;;;;;;5124376;28;20913;-84
2021/06/20 07:14:53;;;;;;;5.40;1.63;;;25.00;65.50;;;;;;5124511;28;20967;-84
2021/06/20 07:17:20;;;;;;;2.43;1.50;;;25.10;64.80;;;;;;5124179;28;20455;-83
2021/06/20 07:19:49;;;;;;;5.80;1.60;;;25.20;64.60;;;;;;5122777;28;20466;-84
2021/06/20 07:22:15;;;;;;;1.97;1.27;;;25.30;64.20;;;;;;5121095;28;20435;-85
2021/06/20 07:24:42;;;;;;;5.10;2.00;;;25.40;63.60;;;;;;5120870;28;20427;-85
2021/06/20 07:27:11;;;;;;;2.10;1.57;;;25.40;61.90;;;;;;5120881;28;20482;-85
2021/06/20 07:29:38;;;;;;;3.67;1.40;;;25.50;62.60;;;;;;5119782;28;20557;-85
2021/06/20 07:32:05;;;;;;;1.70;1.60;;;25.50;61.70;;;;;;5121722;28;20442;-85
2021/06/20 07:34:32;;;;;;;1.57;1.20;;;25.60;61.30;;;;;;5119278;28;20454;-86
2021/06/20 07:37:00;;;;;;;2.30;1.30;;;25.60;62.40;;;;;;5117778;28;20442;-86
2021/06/20 07:39:27;;;;;;;3.70;1.30;;;25.80;61.60;;;;;;5117745;28;20557;-85
2021/06/20 07:41:53;;;;;;;2.53;1.90;;;25.90;59.30;;;;;;5117929;28;20936;-85
2021/06/20 07:44:21;;;;;;;1.47;1.30;;;26.00;59.80;;;;;;5118493;28;20793;-85
2021/06/20 07:46:47;;;;;;;1.80;1.50;;;25.80;58.40;;;;;;5118994;28;20496;-85
2021/06/20 07:49:14;;;;;;;1.63;1.50;;;25.40;59.10;;;;;;5118224;28;20447;-86
2021/06/20 07:51:44;;;;;;;2.73;1.50;;;25.10;60.70;;;;;;5118691;28;20435;-86
2021/06/20 07:54:12;;;;;;;1.50;1.40;;;24.90;61.00;;;;;;5117826;28;20948;-86
2021/06/20 07:56:39;;;;;;;3.03;1.77;;;24.90;62.90;;;;;;5118587;28;20442;-86
2021/06/20 07:59:05;;;;;;;2.30;1.20;;;25.00;63.10;;;;;;5118571;28;20936;-85
2021/06/20 08:01:32;;;;;;;2.30;1.43;;;25.00;61.60;;;;;;5119012;28;20454;-85
2021/06/20 08:03:59;;;;;;;2.73;1.30;;;25.10;62.00;;;;;;5119974;28;20451;-85
2021/06/20 08:06:26;;;;;;;2.43;1.40;;;25.10;60.90;;;;;;5120418;28;20446;-86
2021/06/20 08:08:55;;;;;;;3.57;1.20;;;25.20;60.80;;;;;;5121738;28;20489;-85
2021/06/20 08:11:23;;;;;;;3.90;1.40;;;25.30;59.80;;;;;;5120722;28;20436;-85
2021/06/20 08:13:50;;;;;;;2.23;1.40;;;25.60;59.80;;;;;;5120234;28;20912;-85
2021/06/20 08:16:17;;;;;;;1.40;1.20;;;25.80;59.70;;;;;;5121352;28;20458;-85
2021/06/20 08:18:44;;;;;;;1.80;1.27;;;26.00;59.00;;;;;;5123008;28;20446;-85
2021/06/20 08:21:11;;;;;;;1.77;1.17;;;26.10;57.10;;;;;;5122837;28;20459;-85
2021/06/20 08:23:38;;;;;;;1.83;1.13;;;26.00;56.30;;;;;;5122844;28;20450;-85
2021/06/20 08:26:06;;;;;;;1.60;1.50;;;25.70;56.70;;;;;;5119791;28;20439;-85
2021/06/20 08:28:35;;;;;;;2.40;1.40;;;25.60;57.90;;;;;;5121530;28;20485;-85
2021/06/20 08:31:02;;;;;;;3.10;1.23;;;25.40;58.20;;;;;;5120154;28;20466;-85
2021/06/20 08:33:29;;;;;;;2.47;1.50;;;25.40;57.80;;;;;;5120371;28;20450;-85
2021/06/20 08:35:56;;;;;;;2.80;1.33;;;25.70;57.60;;;;;;5119529;28;20453;-85
2021/06/20 08:38:23;;;;;;;2.87;1.00;;;26.10;57.30;;;;;;5119752;28;20450;-86
2021/06/20 08:40:50;;;;;;;2.60;1.20;;;26.40;55.00;;;;;;5119524;28;20824;-85
2021/06/20 08:43:17;;;;;;;0.97;0.90;;;26.70;54.90;;;;;;5119981;28;20457;-85
2021/06/20 08:45:45;;;;;;;4.27;0.90;;;26.70;53.10;;;;;;5120447;28;20451;-86
2021/06/20 08:48:12;;;;;;;3.37;1.20;;;26.70;51.70;;;;;;5120671;28;20482;-86
2021/06/20 08:50:39;;;;;;;2.70;1.63;;;26.60;52.80;;;;;;5119929;28;20459;-85
2021/06/20 08:53:06;;;;;;;3.07;1.67;;;26.60;53.50;;;;;;5120972;28;20443;-85
2021/06/20 08:55:33;;;;;;;1.53;1.33;;;26.50;53.10;;;;;;5120373;28;20940;-85
2021/06/20 08:58:17;;;;;;;1.40;1.27;;;26.30;53.60;;;;;;5120430;28;20542;-85
2021/06/20 09:00:45;;;;;;;2.13;1.30;;;26.30;54.50;;;;;;5120687;28;20463;-85
2021/06/20 09:03:12;;;;;;;3.23;1.30;;;26.30;52.70;;;;;;5121866;28;20470;-86
2021/06/20 09:05:39;;;;;;;2.37;1.20;;;26.30;54.40;;;;;;5121018;28;20453;-85
2021/06/20 09:08:15;;;;;;;1.30;1.10;;;26.40;51.20;;;;;;5121758;28;20477;-86
2021/06/20 09:10:42;;;;;;;2.83;1.40;;;26.50;52.50;;;;;;5121398;28;20490;-84
2021/06/20 09:13:09;;;;;;;2.40;1.70;;;26.60;51.90;;;;;;5124319;28;20435;-83
2021/06/20 09:15:37;;;;;;;4.27;1.50;;;26.90;51.90;;;;;;5123224;28;20454;-85
2021/06/20 09:18:07;;;;;;;1.00;1.00;;;27.30;49.60;;;;;;5121930;28;20776;-84
2021/06/20 09:20:36;;;;;;;1.53;1.27;;;27.60;49.80;;;;;;5122559;28;20509;-84
2021/06/20 09:23:06;;;;;;;1.27;1.17;;;27.70;47.20;;;;;;5122207;28;20451;-85
2021/06/20 09:25:34;;;;;;;2.13;1.27;;;27.60;47.40;;;;;;5118021;28;20439;-86
2021/06/20 09:28:03;;;;;;;3.80;1.40;;;27.40;47.50;;;;;;5121652;28;20473;-87
2021/06/20 09:30:31;;;;;;;1.23;1.00;;;27.40;50.20;;;;;;5121247;28;20463;-85
2021/06/20 09:33:00;;;;;;;2.93;1.40;;;27.50;49.00;;;;;;5121396;28;21043;-84
2021/06/20 09:35:32;;;;;;;3.27;1.10;;;27.60;46.90;;;;;;5122500;28;20538;-85
2021/06/20 09:37:59;;;;;;;5.50;1.20;;;27.70;47.90;;;;;;5117611;28;20423;-86
2021/06/20 09:40:29;;;;;;;3.67;1.10;;;27.80;49.90;;;;;;5117702;28;20470;-86
2021/06/20 09:42:56;;;;;;;1.40;1.30;;;27.90;47.00;;;;;;5115901;28;20510;-87
2021/06/20 09:45:28;;;;;;;2.57;0.70;;;28.00;47.30;;;;;;5115969;28;20436;-86
2021/06/20 09:47:55;;;;;;;2.13;1.10;;;28.20;48.10;;;;;;5115944;28;20490;-87
2021/06/20 09:50:37;;;;;;;3.60;1.07;;;28.50;45.60;;;;;;5115289;28;20459;-87
2021/06/20 09:53:05;;;;;;;1.50;0.97;;;28.50;44.00;;;;;;5115980;28;20427;-87
2021/06/20 09:55:33;;;;;;;2.33;1.00;;;28.70;44.70;;;;;;5114546;28;20811;-87
2021/06/20 09:58:02;;;;;;;0.70;0.70;;;29.00;44.90;;;;;;5115783;28;20475;-87
2021/06/20 10:00:41;;;;;;;4.63;1.10;;;29.10;43.10;;;;;;5114785;28;20964;-89
2021/06/20 10:03:09;;;;;;;1.10;1.00;;;29.20;44.50;;;;;;5114970;28;20453;-88
2021/06/20 10:05:38;;;;;;;4.27;1.40;;;29.40;43.60;;;;;;5115258;28;20423;-87
2021/06/20 10:08:05;;;;;;;2.40;1.40;;;29.60;43.20;;;;;;5115147;28;20482;-87
2021/06/20 10:10:32;;;;;;;2.83;1.03;;;29.80;43.90;;;;;;5115164;28;20471;-88
2021/06/20 10:12:58;;;;;;;2.33;1.23;;;30.10;42.70;;;;;;5114962;28;20798;-88
2021/06/20 10:15:29;;;;;;;1.70;1.00;;;30.40;42.10;;;;;;5114757;28;20459;-87
2021/06/20 10:17:58;;;;;;;2.00;1.20;;;30.40;41.40;;;;;;5114694;28;20435;-87
2021/06/20 10:20:32;;;;;;;2.43;1.30;;;30.10;42.90;;;;;;5114576;28;20470;-88
2021/06/20 10:23:00;;;;;;;1.00;0.90;;;30.10;41.80;;;;;;5116069;28;20445;-84
2021/06/20 10:25:29;;;;;;;2.00;1.20;;;30.00;42.00;;;;;;5116291;28;20439;-84
2021/06/20 10:28:05;;;;;;;1.40;1.30;;;30.20;42.70;;;;;;5115188;28;20558;-84
2021/06/20 10:30:34;;;;;;;2.77;2.33;;;30.30;42.80;;;;;;5115240;28;20572;-84
2021/06/20 10:33:12;;;;;;;2.80;1.27;;;30.20;41.50;;;;;;5115547;28;20450;-83
2021/06/20 10:35:40;;;;;;;3.20;1.10;;;30.30;41.90;;;;;;5116267;28;20967;-82
2021/06/20 10:38:09;;;;;;;1.87;1.00;;;30.20;40.70;;;;;;5118029;28;20438;-83
2021/06/20 10:40:41;;;;;;;1.43;1.10;;;29.80;41.20;;;;;;5127031;28;20458;-83
2021/06/20 10:43:17;;;;;;;1.20;1.10;;;29.60;43.00;;;;;;5135685;27;20798;-83
2021/06/20 10:45:45;;;;;;;3.90;1.10;;;29.70;41.50;;;;;;5120966;28;20434;-82
2021/06/20 10:48:15;;;;;;;1.37;1.27;;;29.70;42.00;;;;;;5123637;28;20481;-83
2021/06/20 10:50:45;;;;;;;2.03;1.37;;;29.90;41.60;;;;;;5124968;28;20471;-83
2021/06/20 10:53:13;;;;;;;1.47;1.23;;;30.30;41.70;;;;;;5125006;28;20474;-85
2021/06/20 10:55:42;;;;;;;1.43;1.27;;;30.60;39.30;;;;;;5123182;28;20449;-86
2021/06/20 10:58:21;;;;;;;1.70;1.20;;;31.10;39.50;;;;;;5123923;28;20450;-85
2021/06/20 11:00:49;;;;;;;1.37;1.10;;;31.40;39.00;;;;;;5122345;28;20466;-86
2021/06/20 11:03:22;;;;;;;3.50;1.50;;;31.40;39.50;;;;;;5122710;28;20455;-83
2021/06/20 11:05:52;;;;;;;1.40;1.20;;;31.20;38.60;;;;;;5125778;28;20518;-84
2021/06/20 11:08:39;;;;;;;1.70;1.23;;;31.10;39.70;;;;;;5124549;28;20477;-84
2021/06/20 11:11:16;;;;;;;1.40;1.30;;;31.10;39.50;;;;;;5122246;28;20466;-86
2021/06/20 11:13:45;;;;;;;1.30;1.20;;;31.30;39.30;;;;;;5119897;28;20458;-86
2021/06/20 11:16:13;;;;;;;2.63;1.07;;;31.20;39.10;;;;;;5118567;28;20557;-87
2021/06/20 11:18:42;;;;;;;2.43;1.40;;;31.20;41.40;;;;;;5120429;28;20450;-81
2021/06/20 11:21:08;;;;;;;3.40;1.20;;;31.80;39.10;;;;;;5120146;28;20455;-81
2021/06/20 11:23:40;;;;;;;1.50;1.40;;;32.40;36.40;;;;;;5119684;28;20447;-81
2021/06/20 11:26:07;;;;;;;1.30;1.03;;;32.60;36.70;;;;;;5120229;28;20447;-81
2021/06/20 11:28:34;;;;;;;2.77;1.10;;;32.90;36.80;;;;;;5120571;28;20485;-82
2021/06/20 11:31:08;;;;;;;1.60;1.20;;;33.10;36.70;;;;;;5120848;28;20467;-81
2021/06/20 11:33:35;;;;;;;1.53;1.43;;;32.80;37.00;;;;;;5119691;28;20467;-81
2021/06/20 11:36:03;;;;;;;2.87;1.20;;;32.60;37.00;;;;;;5119082;28;20447;-81
2021/06/20 11:38:33;;;;;;;2.10;1.40;;;32.90;38.50;;;;;;5119717;28;20815;-81
2021/06/20 11:41:12;;;;;;;1.30;1.20;;;33.40;34.00;;;;;;5119381;28;20466;-82
2021/06/20 11:43:41;;;;;;;1.13;1.13;;;33.70;34.40;;;;;;5119428;28;20465;-81
2021/06/20 11:46:17;;;;;;;1.67;1.20;;;34.10;34.30;;;;;;5119303;28;20433;-81
2021/06/20 11:48:58;;;;;;;2.73;1.30;;;34.50;33.10;;;;;;5119443;28;20458;-81
2021/06/20 11:51:38;;;;;;;1.10;1.00;;;34.60;31.80;;;;;;5122577;28;20435;-81
2021/06/20 11:54:07;;;;;;;2.90;1.20;;;34.20;33.50;;;;;;5132243;28;20506;-81
2021/06/20 11:56:36;;;;;;;2.13;1.43;;;34.00;34.90;;;;;;5134894;28;20442;-81
2021/06/20 11:59:03;;;;;;;1.90;1.50;;;33.80;33.30;;;;;;5122570;28;20458;-83
2021/06/20 12:01:39;;;;;;;1.10;1.00;;;34.10;33.60;;;;;;5119275;28;20447;-82
2021/06/20 12:04:07;;;;;;;1.77;1.13;;;34.70;34.40;;;;;;5119504;28;20434;-82
2021/06/20 12:06:34;;;;;;;1.37;1.27;;;35.10;31.50;;;;;;5119250;28;20442;-82
2021/06/20 12:09:01;;;;;;;2.50;1.27;;;35.20;30.30;;;;;;5124206;28;21116;-83
2021/06/20 12:11:31;;;;;;;2.00;1.60;;;35.00;30.40;;;;;;5123759;28;20450;-82
2021/06/20 12:13:59;;;;;;;1.67;1.40;;;35.30;30.00;;;;;;5116880;28;20446;-81
2021/06/20 12:16:26;;;;;;;1.50;1.17;;;35.60;30.10;;;;;;5117318;28;20417;-81
2021/06/20 12:18:53;;;;;;;2.13;1.20;;;35.70;30.30;;;;;;5116948;28;20811;-81
2021/06/20 12:21:24;;;;;;;2.37;1.27;;;35.50;30.70;;;;;;5116615;28;20983;-82
2021/06/20 12:23:54;;;;;;;3.87;0.97;;;35.50;30.50;;;;;;5117016;28;20430;-82
2021/06/20 12:26:32;;;;;;;1.57;1.20;;;35.90;30.80;;;;;;5116689;28;20442;-82
2021/06/20 12:29:02;;;;;;;2.47;1.50;;;36.10;28.80;;;;;;5116818;28;20472;-83
2021/06/20 12:31:29;;;;;;;1.43;1.17;;;36.00;28.40;;;;;;5116405;28;20447;-82
2021/06/20 12:34:00;;;;;;;1.30;1.20;;;36.10;28.20;;;;;;5117087;28;20454;-82
2021/06/20 12:37:20;;;;;;;1.07;1.00;;;35.90;28.10;;;;;;5116335;28;20431;-82
2021/06/20 12:39:50;;;;;;;2.30;1.20;;;35.60;29.90;;;;;;5116133;28;20469;-82
2021/06/20 12:42:17;;;;;;;3.17;1.37;;;35.10;29.50;;;;;;5116219;28;20442;-82
2021/06/20 12:44:49;;;;;;;2.43;1.30;;;34.90;32.30;;;;;;5116070;28;20517;-82
2021/06/20 12:47:17;;;;;;;1.67;1.20;;;35.20;31.70;;;;;;5116505;28;20795;-83
2021/06/20 12:49:47;;;;;;;1.97;1.20;;;35.20;30.30;;;;;;5118140;28;20494;-83
2021/06/20 12:52:14;;;;;;;1.50;1.40;;;34.90;29.70;;;;;;5117190;28;20543;-83